You are listening to:
RJTT Tokyo Control - Tokyo, Japan

RJTT 161430Z 01008KT 9999 FEW014 BKN030 BKN038 16/13 Q1013 NOSIG

If stream doesn't start automatically press the play button
If stream stops then reload player then press play